sensor_id;sensor_type;location;lat;lon;timestamp;pressure;altitude;pressure_sealevel;temperature;humidity
58243;BME280;50118;53.232;8.252;2023-12-04T00:02:06;101566.84;;;-2.57;100.00
58243;BME280;50118;53.232;8.252;2023-12-04T00:04:32;101564.38;;;-2.60;100.00
58243;BME280;50118;53.232;8.252;2023-12-04T00:06:57;101560.91;;;-2.63;100.00
58243;BME280;50118;53.232;8.252;2023-12-04T00:12:38;101552.19;;;-2.61;100.00
58243;BME280;50118;53.232;8.252;2023-12-04T00:15:04;101546.28;;;-2.68;100.00
58243;BME280;50118;53.232;8.252;2023-12-04T00:17:29;101538.16;;;-2.57;100.00
58243;BME280;50118;53.232;8.252;2023-12-04T00:19:55;101539.03;;;-2.57;100.00
58243;BME280;50118;53.232;8.252;2023-12-04T00:22:20;101533.72;;;-2.54;100.00
58243;BME280;50118;53.232;8.252;2023-12-04T00:24:46;101525.31;;;-2.64;100.00
58243;BME280;50118;53.232;8.252;2023-12-04T00:27:11;101520.97;;;-2.65;100.00
58243;BME280;50118;53.232;8.252;2023-12-04T00:29:37;101518.44;;;-2.68;100.00
58243;BME280;50118;53.232;8.252;2023-12-04T00:32:02;101517.63;;;-2.70;100.00
58243;BME280;50118;53.232;8.252;2023-12-04T00:34:28;101518.47;;;-2.69;100.00
58243;BME280;50118;53.232;8.252;2023-12-04T00:36:53;101521.06;;;-2.68;100.00
58243;BME280;50118;53.232;8.252;2023-12-04T00:39:19;101512.56;;;-2.76;100.00
58243;BME280;50118;53.232;8.252;2023-12-04T00:41:44;101510.47;;;-2.61;100.00
58243;BME280;50118;53.232;8.252;2023-12-04T00:44:10;101504.44;;;-2.64;100.00
58243;BME280;50118;53.232;8.252;2023-12-04T00:46:35;101506.78;;;-2.54;100.00
58243;BME280;50118;53.232;8.252;2023-12-04T00:49:00;101506.53;;;-2.45;100.00
58243;BME280;50118;53.232;8.252;2023-12-04T00:51:26;101506.69;;;-2.51;100.00
58243;BME280;50118;53.232;8.252;2023-12-04T00:53:51;101506.84;;;-2.57;100.00
58243;BME280;50118;53.232;8.252;2023-12-04T00:56:17;101503.44;;;-2.59;100.00
58243;BME280;50118;53.232;8.252;2023-12-04T00:58:43;101501.66;;;-2.57;100.00
58243;BME280;50118;53.232;8.252;2023-12-04T01:01:09;101497.31;;;-2.57;100.00
58243;BME280;50118;53.232;8.252;2023-12-04T01:03:34;101483.16;;;-2.48;100.00
58243;BME280;50118;53.232;8.252;2023-12-04T01:06:01;101491.53;;;-2.38;100.00
58243;BME280;50118;53.232;8.252;2023-12-04T01:08:26;101493.38;;;-2.42;100.00
58243;BME280;50118;53.232;8.252;2023-12-04T01:10:52;101483.16;;;-2.48;100.00
58243;BME280;50118;53.232;8.252;2023-12-04T01:13:17;101475.06;;;-2.40;100.00
58243;BME280;50118;53.232;8.252;2023-12-04T01:15:43;101475.03;;;-2.39;100.00
58243;BME280;50118;53.232;8.252;2023-12-04T01:18:09;101465.25;;;-2.31;100.00
58243;BME280;50118;53.232;8.252;2023-12-04T01:20:35;101468.28;;;-2.46;100.00
58243;BME280;50118;53.232;8.252;2023-12-04T01:23:01;101464.81;;;-2.45;100.00
58243;BME280;50118;53.232;8.252;2023-12-04T01:25:27;101467.34;;;-2.44;100.00
58243;BME280;50118;53.232;8.252;2023-12-04T01:27:52;101470.09;;;-2.48;100.00
58243;BME280;50118;53.232;8.252;2023-12-04T01:30:17;101467.28;;;-2.42;100.00
58243;BME280;50118;53.232;8.252;2023-12-04T01:32:43;101467.88;;;-2.32;100.00
58243;BME280;50118;53.232;8.252;2023-12-04T01:35:08;101462.63;;;-2.31;100.00
58243;BME280;50118;53.232;8.252;2023-12-04T01:37:33;101461.28;;;-2.44;100.00
58243;BME280;50118;53.232;8.252;2023-12-04T01:39:59;101456.25;;;-2.50;100.00
58243;BME280;50118;53.232;8.252;2023-12-04T01:42:26;101451.03;;;-2.50;100.00
58243;BME280;50118;53.232;8.252;2023-12-04T01:44:51;101457.94;;;-2.49;100.00
58243;BME280;50118;53.232;8.252;2023-12-04T01:47:17;101449.66;;;-2.34;100.00
58243;BME280;50118;53.232;8.252;2023-12-04T01:49:43;101450.59;;;-2.35;100.00
58243;BME280;50118;53.232;8.252;2023-12-04T01:52:09;101440.31;;;-2.41;100.00
58243;BME280;50118;53.232;8.252;2023-12-04T01:54:35;101448.06;;;-2.38;100.00
58243;BME280;50118;53.232;8.252;2023-12-04T01:57:03;101444.41;;;-2.32;100.00
58243;BME280;50118;53.232;8.252;2023-12-04T01:59:29;101442.59;;;-2.30;100.00
58243;BME280;50118;53.232;8.252;2023-12-04T02:01:54;101432.19;;;-2.32;100.00
58243;BME280;50118;53.232;8.252;2023-12-04T02:04:21;101429.47;;;-2.27;100.00
58243;BME280;50118;53.232;8.252;2023-12-04T02:06:47;101431.34;;;-2.32;100.00
58243;BME280;50118;53.232;8.252;2023-12-04T02:09:12;101427.63;;;-2.23;100.00
58243;BME280;50118;53.232;8.252;2023-12-04T02:11:39;101422.22;;;-2.17;100.00
58243;BME280;50118;53.232;8.252;2023-12-04T02:14:06;101419.25;;;-2.07;100.00
58243;BME280;50118;53.232;8.252;2023-12-04T02:16:32;101431.69;;;-2.15;100.00
58243;BME280;50118;53.232;8.252;2023-12-04T02:19:00;101415.34;;;-2.21;100.00
58243;BME280;50118;53.232;8.252;2023-12-04T02:21:26;101418.84;;;-2.21;100.00
58243;BME280;50118;53.232;8.252;2023-12-04T02:23:54;101411.66;;;-2.13;100.00
58243;BME280;50118;53.232;8.252;2023-12-04T02:26:24;101405.75;;;-2.19;100.00
58243;BME280;50118;53.232;8.252;2023-12-04T02:28:55;101406.72;;;-2.23;100.00
58243;BME280;50118;53.232;8.252;2023-12-04T02:31:24;101399.91;;;-2.28;100.00
58243;BME280;50118;53.232;8.252;2023-12-04T02:33:52;101399.81;;;-2.24;100.00
58243;BME280;50118;53.232;8.252;2023-12-04T02:36:19;101395.34;;;-2.21;100.00
58243;BME280;50118;53.232;8.252;2023-12-04T02:38:45;101385.22;;;-2.32;100.00
58243;BME280;50118;53.232;8.252;2023-12-04T02:41:11;101385.59;;;-2.14;100.00
58243;BME280;50118;53.232;8.252;2023-12-04T02:43:36;101375.97;;;-2.14;100.00
58243;BME280;50118;53.232;8.252;2023-12-04T02:46:02;101377.59;;;-2.10;100.00
58243;BME280;50118;53.232;8.252;2023-12-04T02:48:28;101375.03;;;-2.11;100.00
58243;BME280;50118;53.232;8.252;2023-12-04T02:50:53;101374.25;;;-2.15;100.00
58243;BME280;50118;53.232;8.252;2023-12-04T02:53:18;101381.13;;;-2.11;100.00
58243;BME280;50118;53.232;8.252;2023-12-04T02:55:44;101376.66;;;-2.07;100.00
58243;BME280;50118;53.232;8.252;2023-12-04T02:58:09;101372.31;;;-2.08;100.00
58243;BME280;50118;53.232;8.252;2023-12-04T03:00:35;101360.97;;;-2.07;100.00
58243;BME280;50118;53.232;8.252;2023-12-04T03:03:00;101363.59;;;-2.07;100.00
58243;BME280;50118;53.232;8.252;2023-12-04T03:05:25;101361.75;;;-2.03;100.00
58243;BME280;50118;53.232;8.252;2023-12-04T03:07:51;101359.47;;;-2.14;100.00
58243;BME280;50118;53.232;8.252;2023-12-04T03:10:16;101350.72;;;-2.13;100.00
58243;BME280;50118;53.232;8.252;2023-12-04T03:12:42;101348.22;;;-2.16;100.00
58243;BME280;50118;53.232;8.252;2023-12-04T03:15:07;101349.78;;;-2.11;100.00
58243;BME280;50118;53.232;8.252;2023-12-04T03:17:33;101341.69;;;-2.03;100.00
58243;BME280;50118;53.232;8.252;2023-12-04T03:19:58;101345.00;;;-1.98;100.00
58243;BME280;50118;53.232;8.252;2023-12-04T03:22:24;101345.13;;;-2.01;100.00
58243;BME280;50118;53.232;8.252;2023-12-04T03:24:49;101345.38;;;-2.09;100.00
58243;BME280;50118;53.232;8.252;2023-12-04T03:27:14;101343.56;;;-2.07;100.00
58243;BME280;50118;53.232;8.252;2023-12-04T03:29:40;101335.50;;;-1.99;100.00
58243;BME280;50118;53.232;8.252;2023-12-04T03:32:05;101328.41;;;-1.95;100.00
58243;BME280;50118;53.232;8.252;2023-12-04T03:34:31;101322.53;;;-2.02;100.00
58243;BME280;50118;53.232;8.252;2023-12-04T03:36:56;101322.63;;;-2.05;100.00
58243;BME280;50118;53.232;8.252;2023-12-04T03:39:22;101327.59;;;-1.97;100.00
58243;BME280;50118;53.232;8.252;2023-12-04T03:41:47;101319.66;;;-1.94;100.00
58243;BME280;50118;53.232;8.252;2023-12-04T03:44:13;101317.31;;;-2.02;100.00
58243;BME280;50118;53.232;8.252;2023-12-04T03:46:38;101320.53;;;-1.94;100.00
58243;BME280;50118;53.232;8.252;2023-12-04T03:49:05;101318.59;;;-2.15;100.00
58243;BME280;50118;53.232;8.252;2023-12-04T03:51:30;101312.19;;;-2.05;100.00
58243;BME280;50118;53.232;8.252;2023-12-04T03:53:56;101307.16;;;-2.11;100.00
58243;BME280;50118;53.232;8.252;2023-12-04T03:56:21;101299.97;;;-2.04;100.00
58243;BME280;50118;53.232;8.252;2023-12-04T03:58:46;101298.22;;;-2.04;100.00
58243;BME280;50118;53.232;8.252;2023-12-04T04:01:12;101292.00;;;-2.00;100.00
58243;BME280;50118;53.232;8.252;2023-12-04T04:03:37;101286.69;;;-1.97;100.00
58243;BME280;50118;53.232;8.252;2023-12-04T04:06:03;101280.75;;;-2.02;100.00
58243;BME280;50118;53.232;8.252;2023-12-04T04:08:29;101282.63;;;-2.05;100.00
58243;BME280;50118;53.232;8.252;2023-12-04T04:10:54;101280.94;;;-2.08;100.00
58243;BME280;50118;53.232;8.252;2023-12-04T04:13:20;101281.03;;;-2.11;100.00
58243;BME280;50118;53.232;8.252;2023-12-04T04:15:45;101280.91;;;-2.07;100.00
58243;BME280;50118;53.232;8.252;2023-12-04T04:18:11;101272.81;;;-1.99;100.00
58243;BME280;50118;53.232;8.252;2023-12-04T04:20:36;101272.13;;;-2.04;100.00
58243;BME280;50118;53.232;8.252;2023-12-04T04:23:02;101267.16;;;-2.12;100.00
58243;BME280;50118;53.232;8.252;2023-12-04T04:25:27;101275.69;;;-2.07;100.00
58243;BME280;50118;53.232;8.252;2023-12-04T04:27:53;101275.72;;;-2.08;100.00
58243;BME280;50118;53.232;8.252;2023-12-04T04:30:18;101274.03;;;-2.09;100.00
58243;BME280;50118;53.232;8.252;2023-12-04T04:32:43;101265.94;;;-2.01;100.00
58243;BME280;50118;53.232;8.252;2023-12-04T04:35:09;101267.94;;;-2.10;100.00
58243;BME280;50118;53.232;8.252;2023-12-04T04:37:34;101265.56;;;-2.16;100.00
58243;BME280;50118;53.232;8.252;2023-12-04T04:40:01;101267.19;;;-2.13;100.00
58243;BME280;50118;53.232;8.252;2023-12-04T04:42:26;101262.06;;;-2.16;100.00
58243;BME280;50118;53.232;8.252;2023-12-04T04:44:51;101253.25;;;-2.12;100.00
58243;BME280;50118;53.232;8.252;2023-12-04T04:47:17;101254.66;;;-2.02;100.00
58243;BME280;50118;53.232;8.252;2023-12-04T04:49:42;101248.94;;;-2.13;100.00
58243;BME280;50118;53.232;8.252;2023-12-04T04:52:07;101247.88;;;-2.08;100.00
58243;BME280;50118;53.232;8.252;2023-12-04T04:54:33;101247.50;;;-1.97;100.00
58243;BME280;50118;53.232;8.252;2023-12-04T04:56:58;101232.13;;;-2.06;100.00
58243;BME280;50118;53.232;8.252;2023-12-04T04:59:24;101231.53;;;-2.13;100.00
58243;BME280;50118;53.232;8.252;2023-12-04T05:01:49;101226.91;;;-2.06;100.00
58243;BME280;50118;53.232;8.252;2023-12-04T05:04:14;101229.22;;;-1.97;100.00
58243;BME280;50118;53.232;8.252;2023-12-04T05:06:40;101225.94;;;-2.02;100.00
58243;BME280;50118;53.232;8.252;2023-12-04T05:09:05;101227.78;;;-2.05;100.00
58243;BME280;50118;53.232;8.252;2023-12-04T05:11:31;101221.81;;;-2.09;100.00
58243;BME280;50118;53.232;8.252;2023-12-04T05:13:56;101225.28;;;-2.09;100.00
58243;BME280;50118;53.232;8.252;2023-12-04T05:16:22;101222.88;;;-2.15;100.00
58243;BME280;50118;53.232;8.252;2023-12-04T05:18:47;101223.84;;;-2.17;100.00
58243;BME280;50118;53.232;8.252;2023-12-04T05:21:12;101220.75;;;-2.03;100.00
58243;BME280;50118;53.232;8.252;2023-12-04T05:23:38;101219.38;;;-2.14;100.00
58243;BME280;50118;53.232;8.252;2023-12-04T05:26:05;101221.81;;;-2.09;100.00
58243;BME280;50118;53.232;8.252;2023-12-04T05:28:31;101219.31;;;-2.12;100.00
58243;BME280;50118;53.232;8.252;2023-12-04T05:30:56;101216.56;;;-2.08;100.00
58243;BME280;50118;53.232;8.252;2023-12-04T05:33:21;101211.69;;;-1.93;100.00
58243;BME280;50118;53.232;8.252;2023-12-04T05:35:50;101211.69;;;-1.93;100.00
58243;BME280;50118;53.232;8.252;2023-12-04T05:38:18;101210.84;;;-1.94;100.00
58243;BME280;50118;53.232;8.252;2023-12-04T05:40:44;101197.34;;;-2.07;100.00
58243;BME280;50118;53.232;8.252;2023-12-04T05:43:10;101195.50;;;-2.03;100.00
58243;BME280;50118;53.232;8.252;2023-12-04T05:45:35;101195.28;;;-1.97;100.00
58243;BME280;50118;53.232;8.252;2023-12-04T05:48:01;101198.78;;;-1.98;100.00
58243;BME280;50118;53.232;8.252;2023-12-04T05:50:26;101187.75;;;-2.06;100.00
58243;BME280;50118;53.232;8.252;2023-12-04T05:52:52;101188.78;;;-2.10;100.00
58243;BME280;50118;53.232;8.252;2023-12-04T05:55:17;101185.78;;;-1.99;100.00
58243;BME280;50118;53.232;8.252;2023-12-04T05:57:43;101176.13;;;-1.96;100.00
58243;BME280;50118;53.232;8.252;2023-12-04T06:00:09;101177.91;;;-1.98;100.00
58243;BME280;50118;53.232;8.252;2023-12-04T06:02:41;101182.72;;;-1.85;100.00
58243;BME280;50118;53.232;8.252;2023-12-04T06:05:07;101182.59;;;-1.82;100.00
58243;BME280;50118;53.232;8.252;2023-12-04T06:07:33;101173.22;;;-1.88;100.00
58243;BME280;50118;53.232;8.252;2023-12-04T06:09:58;101187.13;;;-1.88;100.00
58243;BME280;50118;53.232;8.252;2023-12-04T06:12:24;101181.00;;;-1.86;100.00
58243;BME280;50118;53.232;8.252;2023-12-04T06:14:49;101184.50;;;-1.88;100.00
58243;BME280;50118;53.232;8.252;2023-12-04T06:17:16;101171.44;;;-1.88;100.00
58243;BME280;50118;53.232;8.252;2023-12-04T06:19:41;101176.19;;;-1.74;100.00
58243;BME280;50118;53.232;8.252;2023-12-04T06:22:07;101175.47;;;-1.79;100.00
58243;BME280;50118;53.232;8.252;2023-12-04T06:24:33;101178.22;;;-1.82;100.00
58243;BME280;50118;53.232;8.252;2023-12-04T06:26:58;101179.28;;;-1.88;100.00
58243;BME280;50118;53.232;8.252;2023-12-04T06:29:24;101159.25;;;-1.87;100.00
58243;BME280;50118;53.232;8.252;2023-12-04T06:31:50;101162.50;;;-1.80;100.00
58243;BME280;50118;53.232;8.252;2023-12-04T06:34:16;101168.28;;;-1.72;100.00
58243;BME280;50118;53.232;8.252;2023-12-04T06:36:41;101170.69;;;-1.66;100.00
58243;BME280;50118;53.232;8.252;2023-12-04T06:39:10;101174.09;;;-1.64;100.00
58243;BME280;50118;53.232;8.252;2023-12-04T06:41:38;101163.53;;;-1.61;100.00
58243;BME280;50118;53.232;8.252;2023-12-04T06:44:05;101169.16;;;-1.72;100.00
58243;BME280;50118;53.232;8.252;2023-12-04T06:46:31;101164.03;;;-1.75;100.00
58243;BME280;50118;53.232;8.252;2023-12-04T06:49:00;101164.56;;;-1.65;100.00
58243;BME280;50118;53.232;8.252;2023-12-04T06:51:25;101149.72;;;-1.64;100.00
58243;BME280;50118;53.232;8.252;2023-12-04T06:53:51;101158.19;;;-1.58;100.00
58243;BME280;50118;53.232;8.252;2023-12-04T06:56:17;101157.72;;;-1.69;100.00
58243;BME280;50118;53.232;8.252;2023-12-04T06:58:43;101160.28;;;-1.67;100.00
58243;BME280;50118;53.232;8.252;2023-12-04T07:01:08;101155.69;;;-1.61;100.00
58243;BME280;50118;53.232;8.252;2023-12-04T07:03:34;101158.25;;;-1.59;100.00
58243;BME280;50118;53.232;8.252;2023-12-04T07:05:59;101157.06;;;-1.51;100.00
58243;BME280;50118;53.232;8.252;2023-12-04T07:08:25;101157.06;;;-1.51;100.00
58243;BME280;50118;53.232;8.252;2023-12-04T07:10:51;101158.09;;;-1.55;100.00
58243;BME280;50118;53.232;8.252;2023-12-04T07:13:16;101160.56;;;-1.52;100.00
58243;BME280;50118;53.232;8.252;2023-12-04T07:15:41;101155.22;;;-1.48;100.00
58243;BME280;50118;53.232;8.252;2023-12-04T07:18:07;101162.38;;;-1.54;100.00
58243;BME280;50118;53.232;8.252;2023-12-04T07:20:32;101158.88;;;-1.53;100.00
58243;BME280;50118;53.232;8.252;2023-12-04T07:22:58;101153.41;;;-1.46;100.00
58243;BME280;50118;53.232;8.252;2023-12-04T07:25:24;101152.81;;;-1.53;100.00
58243;BME280;50118;53.232;8.252;2023-12-04T07:27:49;101149.31;;;-1.54;100.00
58243;BME280;50118;53.232;8.252;2023-12-04T07:30:15;101150.94;;;-1.49;100.00
58243;BME280;50118;53.232;8.252;2023-12-04T07:32:40;101154.31;;;-1.47;100.00
58243;BME280;50118;53.232;8.252;2023-12-04T07:35:06;101143.94;;;-1.49;100.00
58243;BME280;50118;53.232;8.252;2023-12-04T07:37:32;101153.66;;;-1.53;100.00
58243;BME280;50118;53.232;8.252;2023-12-04T07:39:57;101144.66;;;-1.45;100.00
58243;BME280;50118;53.232;8.252;2023-12-04T07:42:23;101151.34;;;-1.38;100.00
58243;BME280;50118;53.232;8.252;2023-12-04T07:44:49;101157.50;;;-1.39;100.00
58243;BME280;50118;53.232;8.252;2023-12-04T07:47:14;101157.44;;;-1.38;100.00
58243;BME280;50118;53.232;8.252;2023-12-04T07:49:41;101151.56;;;-1.21;100.00
58243;BME280;50118;53.232;8.252;2023-12-04T07:52:07;101156.34;;;-1.32;100.00
58243;BME280;50118;53.232;8.252;2023-12-04T07:54:32;101149.56;;;-1.36;100.00
58243;BME280;50118;53.232;8.252;2023-12-04T07:56:58;101157.69;;;-1.22;100.00
58243;BME280;50118;53.232;8.252;2023-12-04T07:59:23;101158.91;;;-1.30;100.00
58243;BME280;50118;53.232;8.252;2023-12-04T08:01:49;101155.97;;;-1.23;100.00
58243;BME280;50118;53.232;8.252;2023-12-04T08:04:14;101157.59;;;-1.19;100.00
58243;BME280;50118;53.232;8.252;2023-12-04T08:06:39;101148.03;;;-1.20;100.00
58243;BME280;50118;53.232;8.252;2023-12-04T08:09:06;101151.31;;;-1.15;100.00
58243;BME280;50118;53.232;8.252;2023-12-04T08:11:35;101139.19;;;-1.16;100.00
58243;BME280;50118;53.232;8.252;2023-12-04T08:14:01;101125.44;;;-1.21;100.00
58243;BME280;50118;53.232;8.252;2023-12-04T08:16:26;101123.78;;;-1.23;100.00
58243;BME280;50118;53.232;8.252;2023-12-04T08:18:54;101125.59;;;-1.03;100.00
58243;BME280;50118;53.232;8.252;2023-12-04T08:21:20;101112.78;;;-1.09;100.00
58243;BME280;50118;53.232;8.252;2023-12-04T08:23:45;101115.09;;;-1.02;100.00
58243;BME280;50118;53.232;8.252;2023-12-04T08:26:11;101108.75;;;-0.96;100.00
58243;BME280;50118;53.232;8.252;2023-12-04T08:28:36;101106.69;;;-0.88;100.00
58243;BME280;50118;53.232;8.252;2023-12-04T08:31:03;101101.69;;;-0.94;100.00
58243;BME280;50118;53.232;8.252;2023-12-04T08:33:29;101096.31;;;-1.11;100.00
58243;BME280;50118;53.232;8.252;2023-12-04T08:35:54;101086.13;;;-0.97;100.00
58243;BME280;50118;53.232;8.252;2023-12-04T08:38:20;101080.72;;;-0.92;100.00
58243;BME280;50118;53.232;8.252;2023-12-04T08:40:45;101086.06;;;-0.96;100.00
58243;BME280;50118;53.232;8.252;2023-12-04T08:43:11;101072.81;;;-0.91;100.00
58243;BME280;50118;53.232;8.252;2023-12-04T08:45:36;101090.81;;;-0.83;100.00
58243;BME280;50118;53.232;8.252;2023-12-04T08:48:01;101085.91;;;-0.70;100.00
58243;BME280;50118;53.232;8.252;2023-12-04T08:50:27;101079.34;;;-0.81;100.00
58243;BME280;50118;53.232;8.252;2023-12-04T08:52:52;101074.75;;;-0.96;100.00
58243;BME280;50118;53.232;8.252;2023-12-04T08:55:18;101065.97;;;-0.73;100.00
58243;BME280;50118;53.232;8.252;2023-12-04T08:57:44;101071.84;;;-0.68;100.00
58243;BME280;50118;53.232;8.252;2023-12-04T09:00:10;101067.00;;;-0.57;100.00
58243;BME280;50118;53.232;8.252;2023-12-04T09:02:35;101078.47;;;-0.59;100.00
58243;BME280;50118;53.232;8.252;2023-12-04T09:05:01;101077.03;;;-0.66;100.00
58243;BME280;50118;53.232;8.252;2023-12-04T09:07:27;101071.78;;;-0.66;100.00
58243;BME280;50118;53.232;8.252;2023-12-04T09:09:52;101073.22;;;-0.80;100.00
58243;BME280;50118;53.232;8.252;2023-12-04T09:12:18;101070.47;;;-0.77;100.00
58243;BME280;50118;53.232;8.252;2023-12-04T09:14:43;101085.25;;;-0.55;100.00
58243;BME280;50118;53.232;8.252;2023-12-04T09:17:10;101077.34;;;-0.53;100.00
58243;BME280;50118;53.232;8.252;2023-12-04T09:19:35;101080.00;;;-0.55;100.00
58243;BME280;50118;53.232;8.252;2023-12-04T09:22:00;101078.72;;;-0.65;100.00
58243;BME280;50118;53.232;8.252;2023-12-04T09:24:26;101078.72;;;-0.65;100.00
58243;BME280;50118;53.232;8.252;2023-12-04T09:26:52;101077.22;;;-0.50;100.00
58243;BME280;50118;53.232;8.252;2023-12-04T09:29:18;101080.41;;;-0.44;100.00
58243;BME280;50118;53.232;8.252;2023-12-04T09:31:43;101080.72;;;-0.51;100.00
58243;BME280;50118;53.232;8.252;2023-12-04T09:34:09;101074.84;;;-0.57;100.00
58243;BME280;50118;53.232;8.252;2023-12-04T09:36:34;101074.53;;;-0.49;100.00
58243;BME280;50118;53.232;8.252;2023-12-04T09:39:00;101071.13;;;-0.51;100.00
58243;BME280;50118;53.232;8.252;2023-12-04T09:41:26;101069.53;;;-0.55;100.00
58243;BME280;50118;53.232;8.252;2023-12-04T09:43:52;101074.78;;;-0.55;100.00
58243;BME280;50118;53.232;8.252;2023-12-04T09:46:19;101069.28;;;-0.49;100.00
58243;BME280;50118;53.232;8.252;2023-12-04T09:48:44;101067.19;;;-0.41;100.00
58243;BME280;50118;53.232;8.252;2023-12-04T09:51:10;101066.38;;;-0.43;100.00
58243;BME280;50118;53.232;8.252;2023-12-04T09:53:36;101069.28;;;-0.49;100.00
58243;BME280;50118;53.232;8.252;2023-12-04T09:56:03;101066.69;;;-0.49;100.00
58243;BME280;50118;53.232;8.252;2023-12-04T09:58:30;101065.56;;;-0.43;100.00
58243;BME280;50118;53.232;8.252;2023-12-04T10:00:58;101066.47;;;-0.44;100.00
58243;BME280;50118;53.232;8.252;2023-12-04T10:03:26;101068.03;;;-0.40;100.00
58243;BME280;50118;53.232;8.252;2023-12-04T10:05:54;101063.94;;;-0.46;100.00
58243;BME280;50118;53.232;8.252;2023-12-04T10:08:19;101056.72;;;-0.41;100.00
58243;BME280;50118;53.232;8.252;2023-12-04T10:10:44;101048.47;;;-0.52;100.00
58243;BME280;50118;53.232;8.252;2023-12-04T10:13:10;101047.66;;;-0.52;100.00
58243;BME280;50118;53.232;8.252;2023-12-04T10:15:46;101043.13;;;-0.49;100.00
58243;BME280;50118;53.232;8.252;2023-12-04T10:18:24;101046.41;;;-0.25;100.00
58243;BME280;50118;53.232;8.252;2023-12-04T10:20:53;101025.03;;;-0.34;100.00
58243;BME280;50118;53.232;8.252;2023-12-04T10:23:23;101032.75;;;-0.31;100.00
58243;BME280;50118;53.232;8.252;2023-12-04T10:26:01;101030.78;;;-0.26;100.00
58243;BME280;50118;53.232;8.252;2023-12-04T10:28:26;101025.69;;;-0.29;100.00
58243;BME280;50118;53.232;8.252;2023-12-04T10:30:52;101018.41;;;-0.23;100.00
58243;BME280;50118;53.232;8.252;2023-12-04T10:33:18;101024.97;;;-0.14;100.00
58243;BME280;50118;53.232;8.252;2023-12-04T10:35:46;101021.88;;;-0.22;100.00
58243;BME280;50118;53.232;8.252;2023-12-04T10:38:12;101020.38;;;-0.09;100.00
58243;BME280;50118;53.232;8.252;2023-12-04T10:40:39;101012.72;;;-0.32;100.00
58243;BME280;50118;53.232;8.252;2023-12-04T10:45:40;101007.72;;;-0.18;100.00
58243;BME280;50118;53.232;8.252;2023-12-04T10:48:06;101006.31;;;-0.06;100.00
58243;BME280;50118;53.232;8.252;2023-12-04T10:50:36;100988.41;;;0.04;100.00
58243;BME280;50118;53.232;8.252;2023-12-04T10:53:06;100997.75;;;0.09;100.00
58243;BME280;50118;53.232;8.252;2023-12-04T10:55:31;100985.72;;;0.05;100.00
58243;BME280;50118;53.232;8.252;2023-12-04T10:58:02;100982.59;;;0.16;100.00
58243;BME280;50118;53.232;8.252;2023-12-04T11:00:30;100983.50;;;0.15;100.00
58243;BME280;50118;53.232;8.252;2023-12-04T11:02:56;100978.47;;;-0.09;100.00
58243;BME280;50118;53.232;8.252;2023-12-04T11:05:24;100979.63;;;0.05;100.00
58243;BME280;50118;53.232;8.252;2023-12-04T11:07:51;100971.34;;;0.14;100.00
58243;BME280;50118;53.232;8.252;2023-12-04T11:10:21;100962.53;;;0.15;100.00
58243;BME280;50118;53.232;8.252;2023-12-04T11:12:52;100965.03;;;0.18;100.00
58243;BME280;50118;53.232;8.252;2023-12-04T11:15:22;100966.88;;;0.16;100.00
58243;BME280;50118;53.232;8.252;2023-12-04T11:17:52;100950.22;;;0.17;100.00
58243;BME280;50118;53.232;8.252;2023-12-04T11:20:21;100961.50;;;0.19;100.00
58243;BME280;50118;53.232;8.252;2023-12-04T11:22:50;100939.53;;;0.22;100.00
58243;BME280;50118;53.232;8.252;2023-12-04T11:25:17;100947.47;;;0.20;100.00
58243;BME280;50118;53.232;8.252;2023-12-04T11:27:43;100949.88;;;0.25;100.00
58243;BME280;50118;53.232;8.252;2023-12-04T11:30:09;100953.16;;;0.11;100.00
58243;BME280;50118;53.232;8.252;2023-12-04T11:32:48;100956.97;;;0.04;100.00
58243;BME280;50118;53.232;8.252;2023-12-04T11:35:17;100948.78;;;-0.08;100.00
58243;BME280;50118;53.232;8.252;2023-12-04T11:37:44;100942.25;;;0.01;100.00
58243;BME280;50118;53.232;8.252;2023-12-04T11:40:15;100936.00;;;0.23;100.00
58243;BME280;50118;53.232;8.252;2023-12-04T11:42:41;100953.56;;;0.21;100.00
58243;BME280;50118;53.232;8.252;2023-12-04T11:45:07;100944.28;;;0.13;100.00
58243;BME280;50118;53.232;8.252;2023-12-04T11:47:56;100936.69;;;0.26;100.00
58243;BME280;50118;53.232;8.252;2023-12-04T11:50:24;100929.19;;;0.18;100.00
58243;BME280;50118;53.232;8.252;2023-12-04T11:52:50;100935.59;;;0.30;100.00
58243;BME280;50118;53.232;8.252;2023-12-04T11:55:17;100933.53;;;0.37;100.00
58243;BME280;50118;53.232;8.252;2023-12-04T11:57:43;100925.56;;;0.04;100.00
58243;BME280;50118;53.232;8.252;2023-12-04T12:00:21;100924.50;;;0.25;100.00
58243;BME280;50118;53.232;8.252;2023-12-04T12:05:23;100919.31;;;0.06;100.00
58243;BME280;50118;53.232;8.252;2023-12-04T12:07:49;100908.72;;;-0.10;100.00
58243;BME280;50118;53.232;8.252;2023-12-04T12:10:16;100913.47;;;-0.18;100.00
58243;BME280;50118;53.232;8.252;2023-12-04T12:12:44;100909.22;;;-0.02;100.00
58243;BME280;50118;53.232;8.252;2023-12-04T12:15:10;100905.69;;;0.17;100.00
58243;BME280;50118;53.232;8.252;2023-12-04T12:17:40;100900.97;;;0.06;100.00
58243;BME280;50118;53.232;8.252;2023-12-04T12:20:12;100894.75;;;0.09;100.00
58243;BME280;50118;53.232;8.252;2023-12-04T12:22:38;100895.72;;;0.06;100.00
58243;BME280;50118;53.232;8.252;2023-12-04T12:25:07;100887.66;;;0.11;100.00
58243;BME280;50118;53.232;8.252;2023-12-04T12:27:33;100880.97;;;0.05;100.00
58243;BME280;50118;53.232;8.252;2023-12-04T12:29:58;100891.34;;;0.07;100.00
58243;BME280;50118;53.232;8.252;2023-12-04T12:32:24;100878.56;;;0.01;100.00
58243;BME280;50118;53.232;8.252;2023-12-04T12:34:51;100880.41;;;-0.02;100.00
58243;BME280;50118;53.232;8.252;2023-12-04T12:37:16;100877.25;;;0.09;100.00
58243;BME280;50118;53.232;8.252;2023-12-04T12:39:42;100867.75;;;0.07;100.00
58243;BME280;50118;53.232;8.252;2023-12-04T12:42:08;100860.97;;;0.03;100.00
58243;BME280;50118;53.232;8.252;2023-12-04T12:44:40;100869.59;;;0.05;100.00